createdAt,value
2022-12-15T00:03:37.122Z,96126.19
2022-12-15T00:07:57.414Z,96120.25
2022-12-15T00:12:17.629Z,96116.59
2022-12-15T00:16:37.681Z,96116.44
2022-12-15T00:20:59.005Z,96115.09
2022-12-15T00:25:19.539Z,96120.75
2022-12-15T00:29:39.664Z,96135.44
2022-12-15T00:33:59.663Z,96145.03
2022-12-15T00:38:26.719Z,96156.09
2022-12-15T00:42:29.441Z,96148.81
2022-12-15T00:46:49.863Z,96160.88
2022-12-15T00:50:55.523Z,96164.81
2022-12-15T00:55:16.814Z,96170.13
2022-12-15T00:59:36.929Z,96170.13
2022-12-15T01:03:56.942Z,96175.56
2022-12-15T01:08:18.391Z,96174.72
2022-12-15T01:12:39.997Z,96189.47
2022-12-15T01:17:00.109Z,96177.41
2022-12-15T01:21:04.869Z,96177.09
2022-12-15T01:25:08.856Z,96181.22
2022-12-15T01:29:12.828Z,96178.13
2022-12-15T01:33:16.394Z,96189.81
2022-12-15T01:37:19.045Z,96197.09
2022-12-15T01:41:21.841Z,96205.69
2022-12-15T01:45:48.820Z,96198.09
2022-12-15T01:49:54.742Z,96209.47
2022-12-15T01:54:04.549Z,96219.91
2022-12-15T01:58:10.676Z,96213.63
2022-12-15T02:02:16.596Z,96220.88
2022-12-15T02:06:22.757Z,96238.88
2022-12-15T02:10:30.062Z,96248.94
2022-12-15T02:14:41.381Z,96251.06
2022-12-15T02:18:57.821Z,96249.72
2022-12-15T02:23:28.791Z,96251.03
2022-12-15T02:27:48.341Z,96258.28
2022-12-15T02:32:00.592Z,96254.66
2022-12-15T02:36:09.450Z,96242.75
2022-12-15T02:40:12.555Z,96248.31
2022-12-15T02:44:21.056Z,96251.97
2022-12-15T02:48:32.497Z,96237.75
2022-12-15T02:52:50.447Z,96267.28
2022-12-15T02:57:05.952Z,96255.25
2022-12-15T03:01:18.908Z,96283.44
2022-12-15T03:05:25.304Z,96292.91
2022-12-15T03:09:27.995Z,96299.63
2022-12-15T03:13:30.959Z,96282.28
2022-12-15T03:17:33.853Z,96303.09
2022-12-15T03:21:37.845Z,96285.59
2022-12-15T03:25:40.490Z,96301.94
2022-12-15T03:29:43.168Z,96298.47
2022-12-15T03:33:46.031Z,96286.56
2022-12-15T03:37:50.044Z,96304.72
2022-12-15T03:41:52.705Z,96310.81
2022-12-15T03:45:55.469Z,96305.00
2022-12-15T03:49:58.137Z,96297.75
2022-12-15T03:54:02.161Z,96293.16
2022-12-15T03:58:04.819Z,96300.09
2022-12-15T04:02:08.254Z,96314.13
2022-12-15T04:06:11.009Z,96317.44
2022-12-15T04:10:15.142Z,96312.31
2022-12-15T04:14:17.876Z,96331.47
2022-12-15T04:18:20.548Z,96334.94
2022-12-15T04:22:23.311Z,96336.75
2022-12-15T04:26:44.856Z,96338.88
2022-12-15T04:31:08.528Z,96345.69
2022-12-15T04:35:30.240Z,96340.22
2022-12-15T04:39:52.277Z,96352.94
2022-12-15T04:44:13.616Z,96345.00
2022-12-15T04:48:33.792Z,96351.63
2022-12-15T04:52:53.770Z,96371.78
2022-12-15T04:57:13.870Z,96388.91
2022-12-15T05:01:35.519Z,96375.63
2022-12-15T05:05:55.929Z,96375.47
2022-12-15T05:10:16.366Z,96381.44
2022-12-15T05:14:36.487Z,96368.91
2022-12-15T05:18:58.564Z,96374.84
2022-12-15T05:23:18.713Z,96372.97
2022-12-15T05:27:38.893Z,96386.03
2022-12-15T05:31:51.904Z,96384.38
2022-12-15T05:35:58.940Z,96383.94
2022-12-15T05:40:01.933Z,96393.81
2022-12-15T05:44:04.771Z,96419.72
2022-12-15T05:48:07.442Z,96413.06
2022-12-15T05:52:11.517Z,96412.41
2022-12-15T05:56:15.939Z,96429.91
2022-12-15T06:00:19.079Z,96418.72
2022-12-15T06:04:21.866Z,96435.56
2022-12-15T06:08:25.942Z,96432.53
2022-12-15T06:12:29.673Z,96448.25
2022-12-15T06:16:32.426Z,96457.81
2022-12-15T06:20:35.178Z,96452.38
2022-12-15T06:24:39.387Z,96449.88
2022-12-15T06:28:42.873Z,96457.53
2022-12-15T06:32:45.527Z,96448.31
2022-12-15T06:36:52.530Z,96453.06
2022-12-15T06:40:58.964Z,96450.44
2022-12-15T06:45:01.680Z,96483.66
2022-12-15T06:49:04.383Z,96478.81
2022-12-15T06:53:07.806Z,96486.72
2022-12-15T06:57:11.801Z,96498.84
2022-12-15T07:01:15.507Z,96503.66
2022-12-15T07:05:18.501Z,96491.41
2022-12-15T07:09:21.159Z,96480.56
2022-12-15T07:13:25.757Z,96478.06
2022-12-15T07:17:28.840Z,96455.63
2022-12-15T07:21:31.537Z,96453.16
2022-12-15T07:25:35.022Z,96467.41
2022-12-15T07:29:39.018Z,96462.28
2022-12-15T07:33:41.677Z,96464.72
2022-12-15T07:37:44.575Z,96473.09
2022-12-15T07:41:47.389Z,96469.50
2022-12-15T07:45:54.445Z,96488.66
2022-12-15T07:49:57.411Z,96491.03
2022-12-15T07:54:00.105Z,96502.75
2022-12-15T07:58:02.823Z,96509.28
2022-12-15T08:02:07.029Z,96491.97
2022-12-15T08:06:11.996Z,96497.59
2022-12-15T08:10:14.736Z,96510.97
2022-12-15T08:14:18.764Z,96524.31
2022-12-15T08:18:23.851Z,96520.47
2022-12-15T08:22:26.859Z,96525.47
2022-12-15T08:26:31.324Z,96523.94
2022-12-15T08:30:34.987Z,96527.78
2022-12-15T08:34:39.308Z,96518.41
2022-12-15T08:38:43.131Z,96515.34
2022-12-15T08:42:46.037Z,96517.31
2022-12-15T08:46:48.703Z,96535.31
2022-12-15T08:50:52.877Z,96545.06
2022-12-15T08:54:55.850Z,96553.94
2022-12-15T08:58:59.802Z,96552.13
2022-12-15T09:03:02.429Z,96571.56
2022-12-15T09:07:06.434Z,96568.66
2022-12-15T09:11:09.429Z,96564.84
2022-12-15T09:15:12.390Z,96567.03
2022-12-15T09:19:15.024Z,96574.81
2022-12-15T09:23:19.041Z,96584.63
2022-12-15T09:27:22.799Z,96584.53
2022-12-15T09:31:28.548Z,96569.88
2022-12-15T09:35:31.458Z,96534.66
2022-12-15T09:39:35.489Z,96547.31
2022-12-15T09:43:47.170Z,96545.03
2022-12-15T09:47:54.425Z,96550.34
2022-12-15T09:52:07.230Z,96534.13
2022-12-15T09:56:19.099Z,96538.94
2022-12-15T10:00:25.953Z,96529.66
2022-12-15T10:04:37.883Z,96514.09
2022-12-15T10:08:44.627Z,96528.78
2022-12-15T10:13:01.131Z,96531.47
2022-12-15T10:17:12.713Z,96523.47
2022-12-15T10:21:15.585Z,96526.16
2022-12-15T10:29:50.812Z,96512.53
2022-12-15T10:33:58.843Z,96498.41
2022-12-15T10:38:04.616Z,96498.91
2022-12-15T10:42:17.009Z,96482.31
2022-12-15T10:46:22.985Z,96486.19
2022-12-15T10:50:27.589Z,96485.84
2022-12-15T10:54:35.649Z,96466.38
2022-12-15T10:58:50.132Z,96474.69
2022-12-15T11:02:54.650Z,96463.00
2022-12-15T11:06:59.126Z,96483.31
2022-12-15T11:11:19.924Z,96481.41
2022-12-15T11:15:47.140Z,96475.59
2022-12-15T11:20:02.962Z,96496.50
2022-12-15T11:24:13.024Z,96492.59
2022-12-15T11:28:19.737Z,96480.13
2022-12-15T11:32:26.297Z,96485.09
2022-12-15T11:36:58.327Z,96473.59
2022-12-15T11:41:13.021Z,96482.81
2022-12-15T11:45:22.149Z,96501.41
2022-12-15T11:49:44.941Z,96470.84
2022-12-15T11:54:03.725Z,96459.53
2022-12-15T11:58:40.123Z,96442.13
2022-12-15T12:02:59.747Z,96414.25
2022-12-15T12:07:22.845Z,96413.78
2022-12-15T12:11:35.952Z,96420.69
2022-12-15T12:15:48.762Z,96423.34
2022-12-15T12:20:07.853Z,96435.31
2022-12-15T12:24:22.080Z,96449.44
2022-12-15T12:28:32.397Z,96436.63
2022-12-15T12:32:47.528Z,96427.78
2022-12-15T12:37:05.448Z,96418.13
2022-12-15T12:41:16.550Z,96417.66
2022-12-15T12:45:22.162Z,96421.66
2022-12-15T12:49:29.746Z,96431.16
2022-12-15T12:53:35.236Z,96439.66
2022-12-15T12:57:40.897Z,96434.50
2022-12-15T13:01:45.074Z,96421.22
2022-12-15T13:05:50.872Z,96403.00
2022-12-15T13:10:13.797Z,96400.50
2022-12-15T13:14:25.631Z,96386.78
2022-12-15T13:19:03.467Z,96374.31
2022-12-15T13:23:37.579Z,96375.25
2022-12-15T13:27:41.547Z,96365.78
2022-12-15T13:31:53.273Z,96353.88
2022-12-15T13:35:58.778Z,96352.91
2022-12-15T13:40:08.989Z,96334.38
2022-12-15T13:44:16.675Z,96336.00
2022-12-15T13:48:29.398Z,96350.91
2022-12-15T13:53:16.541Z,96352.09
2022-12-15T13:57:05.828Z,96354.25
2022-12-15T14:01:23.185Z,96363.94
2022-12-15T14:05:27.653Z,96381.53
2022-12-15T14:09:35.229Z,96371.41
2022-12-15T14:13:38.225Z,96364.31
2022-12-15T14:17:41.159Z,96363.28
2022-12-15T14:21:51.628Z,96349.38
2022-12-15T14:26:04.785Z,96364.97
2022-12-15T14:30:23.669Z,96347.72
2022-12-15T14:34:31.779Z,96352.72
2022-12-15T14:38:44.941Z,96343.44
2022-12-15T14:42:50.624Z,96330.69
2022-12-15T14:46:53.408Z,96322.25
2022-12-15T14:51:01.255Z,96312.00
2022-12-15T14:55:05.913Z,96315.13
2022-12-15T14:59:20.781Z,96317.97
2022-12-15T15:03:10.904Z,96507.56
2022-12-15T15:03:36.299Z,96318.31
2022-12-15T15:07:40.037Z,96331.88
2022-12-15T15:11:44.042Z,96329.72
2022-12-15T15:15:54.790Z,96322.94
2022-12-15T15:20:00.152Z,96318.97
2022-12-15T15:24:04.934Z,96318.97
2022-12-15T15:28:16.567Z,96320.78
2022-12-15T15:32:22.366Z,96325.06
2022-12-15T15:36:31.093Z,96326.59
2022-12-15T15:40:33.749Z,96325.06
2022-12-15T15:44:36.465Z,96327.91
2022-12-15T15:48:45.840Z,96330.56
2022-12-15T15:52:49.331Z,96327.91
2022-12-15T15:56:52.109Z,96324.09
2022-12-15T16:00:54.803Z,96318.63
2022-12-15T16:04:58.813Z,96332.88
2022-12-15T16:09:01.719Z,96329.69
2022-12-15T16:13:04.417Z,96332.50
2022-12-15T16:17:10.493Z,96326.91
2022-12-15T16:21:16.677Z,96319.47
2022-12-15T16:25:22.031Z,96328.59
2022-12-15T16:29:24.829Z,96321.94
2022-12-15T16:33:27.541Z,96309.19
2022-12-15T16:37:36.177Z,96304.69
2022-12-15T16:41:42.014Z,96302.38
2022-12-15T16:45:45.875Z,96305.00
2022-12-15T16:49:48.809Z,96299.91
2022-12-15T16:53:52.972Z,96292.13
2022-12-15T16:57:58.400Z,96282.69
2022-12-15T17:02:01.762Z,96281.19
2022-12-15T17:06:08.699Z,96275.72
2022-12-15T17:10:20.587Z,96281.69
2022-12-15T17:14:23.280Z,96276.75
2022-12-15T17:18:26.149Z,96284.53
2022-12-15T17:22:29.044Z,96274.75
2022-12-15T17:26:36.372Z,96281.22
2022-12-15T17:30:39.016Z,96292.78
2022-12-15T17:34:41.871Z,96293.94
2022-12-15T17:38:45.037Z,96287.50
2022-12-15T17:42:50.079Z,96283.81
2022-12-15T17:46:52.890Z,96278.16
2022-12-15T17:50:55.593Z,96270.88
2022-12-15T17:54:58.798Z,96262.81
2022-12-15T17:59:02.791Z,96270.63
2022-12-15T18:03:05.805Z,96247.44
2022-12-15T18:07:16.436Z,96234.72
2022-12-15T18:11:19.360Z,96229.88
2022-12-15T18:15:25.066Z,96227.41
2022-12-15T18:19:34.715Z,96218.78
2022-12-15T18:23:37.831Z,96200.59
2022-12-15T18:27:40.537Z,96196.47
2022-12-15T18:31:45.289Z,96201.09
2022-12-15T18:35:50.526Z,96203.59
2022-12-15T18:39:53.697Z,96205.38
2022-12-15T18:43:58.599Z,96210.00
2022-12-15T18:48:09.848Z,96210.00
2022-12-15T18:52:18.228Z,96211.03
2022-12-15T18:56:26.024Z,96220.28
2022-12-15T19:00:30.327Z,96214.00
2022-12-15T19:04:34.355Z,96210.19
2022-12-15T19:08:38.333Z,96202.72
2022-12-15T19:12:43.406Z,96198.41
2022-12-15T19:17:05.499Z,96191.94
2022-12-15T19:21:35.865Z,96190.63
2022-12-15T19:25:39.766Z,96172.56
2022-12-15T19:29:46.184Z,96176.25
2022-12-15T19:33:51.300Z,96173.91
2022-12-15T19:37:57.761Z,96165.97
2022-12-15T19:42:13.001Z,96155.53
2022-12-15T19:46:23.362Z,96142.47
2022-12-15T19:50:30.974Z,96152.56
2022-12-15T19:54:35.088Z,96137.81
2022-12-15T19:58:38.726Z,96132.50
2022-12-15T20:02:51.601Z,96122.25
2022-12-15T20:06:54.550Z,96124.06
2022-12-15T20:10:58.609Z,96126.06
2022-12-15T20:15:01.305Z,96118.78
2022-12-15T20:19:04.269Z,96115.31
2022-12-15T20:23:15.213Z,96121.09
2022-12-15T20:27:20.480Z,96109.50
2022-12-15T20:31:25.600Z,96113.59
2022-12-15T20:35:28.520Z,96105.66
2022-12-15T20:39:31.371Z,96111.44
2022-12-15T20:43:36.336Z,96102.84
2022-12-15T20:47:42.216Z,96095.72
2022-12-15T20:51:45.970Z,96084.47
2022-12-15T20:55:49.766Z,96077.53
2022-12-15T20:59:54.028Z,96081.16
2022-12-15T21:03:59.943Z,96081.16
2022-12-15T21:08:02.788Z,96070.41
2022-12-15T21:12:13.280Z,96065.75
2022-12-15T21:16:19.664Z,96052.34
2022-12-15T21:20:22.520Z,96064.41
2022-12-15T21:24:27.100Z,96061.47
2022-12-15T21:28:30.034Z,96053.53
2022-12-15T21:32:34.455Z,96064.56
2022-12-15T21:36:39.101Z,96048.88
2022-12-15T21:40:42.361Z,96040.28
2022-12-15T21:44:45.813Z,96047.22
2022-12-15T21:49:07.321Z,96045.09
2022-12-15T21:53:15.969Z,96029.53
2022-12-15T21:57:18.621Z,96026.69
2022-12-15T22:01:23.276Z,96023.41
2022-12-15T22:05:30.257Z,96010.31
2022-12-15T22:09:32.960Z,96012.97
2022-12-15T22:13:35.659Z,96006.53
2022-12-15T22:17:38.325Z,96006.91
2022-12-15T22:21:42.757Z,96006.41
2022-12-15T22:25:46.288Z,96014.34
2022-12-15T22:29:50.137Z,96008.56
2022-12-15T22:33:52.945Z,96015.88
2022-12-15T22:37:59.576Z,96016.84
2022-12-15T22:42:03.097Z,96010.25
2022-12-15T22:46:08.911Z,96014.22
2022-12-15T22:50:17.144Z,96010.09
2022-12-15T22:54:22.026Z,96013.75
2022-12-15T22:58:27.761Z,96012.78
2022-12-15T23:02:34.705Z,96016.91
2022-12-15T23:06:37.459Z,96008.81
2022-12-15T23:10:59.028Z,96007.78
2022-12-15T23:15:21.574Z,96008.97
2022-12-15T23:19:24.598Z,96002.38
2022-12-15T23:23:28.077Z,96006.00
2022-12-15T23:27:32.140Z,95998.56
2022-12-15T23:31:34.900Z,95998.56
2022-12-15T23:35:40.634Z,96000.91
2022-12-15T23:39:43.273Z,96001.06
2022-12-15T23:43:47.428Z,95996.94
2022-12-15T23:47:50.259Z,95985.38
2022-12-15T23:51:52.928Z,96005.53
2022-12-15T23:55:57.744Z,95990.63
